Terminal Aerodrome Forecast
Issued by NWS Cleveland, OH

Home | Current Version | Previous Version | Graphics & Text | Print | Product List | Glossary On
Versions: 1 2 3 4 5 6 7 8 9 10 11 12 13 14 15 16
000
FTUS41 KCLE 052339
TAFYNG
TAF
KYNG 052339Z 0600/0624 VRB03KT P6SM SCT025 BKN150
      TEMPO 0600/0603 OVC025
     FM060300 08005KT P6SM BKN100
     FM061500 08008KT 5SM -RA OVC020
     FM061700 09010KT 3SM -RA BR OVC008
     FM061900 10010G18KT 2SM -RA BR OVC004=

USA.gov is the U.S. government's official web portal to all federal, state and local government web resources and services.